Flight Track Log - Related Links

Times and Time Zones

All times are in EDT time to prevent confusion due to time zone crossing. See the AMF1026 flight status page for this flight to view local times or setup timezone preferences in your user account.

Time Position Orientation Groundspeed Altitude Reporting Facility
EDT Latitude Longitude Course Direction KTS MPH feet Rate Location/Type
Thu 08:33:31 PM 42.7672 -73.8061 321° Northwest 153 176 1,300  Level Boston Center
Thu 08:34:38 PM 42.8044 -73.8467 321° Northwest 214 246 3,000 1,618 Climbing Boston Center
Thu 08:36:03 PM 42.7861 -73.9650 258° West 244 281 5,400 1,531 Climbing Boston Center
Thu 08:37:03 PM 42.7703 -74.0494 256° West 244 281 6,700 1,136 Climbing Boston Center
Thu 08:38:15 PM 42.7547 -74.1283 255° West 233 268 7,900 1,227 Climbing Boston Center
Thu 08:39:15 PM 42.7219 -74.2289 246° West 224 258 9,400 1,400 Climbing Boston Center
Thu 08:40:15 PM 42.6978 -74.3017 246° West 224 258 10,700 1,100 Climbing Boston Center
Thu 08:41:15 PM 42.6778 -74.3747 250° West 213 245 11,600 650 Climbing Boston Center
Thu 08:42:15 PM 42.6558 -74.4475 248° West 213 245 12,000 200 Climbing Boston Center
Thu 08:43:15 PM 42.6272 -74.5256 244° Southwest 226 260 12,000  Level Boston Center
Thu 08:44:15 PM 42.5986 -74.6092 245° Southwest 240 276 12,000  Level Boston Center
Thu 08:45:15 PM 42.5739 -74.6956 249° West 240 276 12,000  Level Boston Center
Thu 08:46:15 PM 42.5472 -74.7792 247° West 245 282 12,000  Level Boston Center
Thu 08:47:15 PM 42.5244 -74.8658 250° West 263 303 12,000 -29 Level Boston Center
Thu 08:49:43 PM 42.4550 -75.0789 246° West 265 305 11,900 -29 Descending New York Center
Thu 08:50:43 PM 42.4250 -75.1611 244° Southwest 265 305 11,900  Level New York Center
Thu 08:51:42 PM 42.3986 -75.2519 249° West 265 305 11,900 51 Level New York Center
Thu 08:52:41 PM 42.3683 -75.3397 245° Southwest 265 305 12,000 50 Climbing New York Center
Thu 08:53:41 PM 42.3400 -75.4247 246° West 260 299 12,000 -49 Level New York Center
Thu 08:54:43 PM 42.3117 -75.5125 246° West 260 299 11,900  Descending New York Center
Thu 08:55:41 PM 42.2831 -75.6000 246° West 260 299 12,000  Climbing New York Center
Thu 08:56:41 PM 42.2544 -75.6903 247° West 260 299 11,900 -50 Descending New York Center
Thu 08:57:41 PM 42.2197 -75.7747 241° Southwest 260 299 11,900  Level New York Center
Thu 08:58:42 PM 42.1889 -75.8619 245° Southwest 260 299 11,900  Level New York Center
Thu 08:59:43 PM 42.1600 -75.9519 247° West 260 299 11,900  Level New York Center
Thu 09:00:43 PM 42.1336 -76.0364 247° West 260 299 11,900  Level New York Center
Thu 09:01:42 PM 42.1044 -76.1292 247° West 260 299 11,900 50 Level New York Center
Thu 09:02:43 PM 42.0775 -76.2164 247° West 260 299 12,000 50 Climbing New York Center
Thu 09:03:41 PM 42.0483 -76.3061 246° West 260 299 12,000  Level New York Center
Thu 09:04:43 PM 42.0147 -76.4011 245° Southwest 260 299 12,000  Level New York Center
Thu 09:05:43 PM 41.9836 -76.4850 244° Southwest 260 299 12,000  Level New York Center
Thu 09:06:41 PM 41.9525 -76.5714 244° Southwest 260 299 12,000  Level New York Center
Thu 09:07:41 PM 41.9233 -76.6581 246° West 260 299 12,000  Level New York Center
Thu 09:08:42 PM 41.8939 -76.7447 245° Southwest 260 299 12,000  Level New York Center
Thu 09:09:40 PM 41.8622 -76.8339 245° Southwest 260 299 12,000  Level New York Center
Thu 09:11:19 PM 41.8178 -76.9747 247° West 265 305 12,000  Level Cleveland Center
Thu 09:12:20 PM 41.7892 -77.0600 246° West 265 305 12,000  Level Cleveland Center
Thu 09:13:20 PM 41.7564 -77.1508 244° Southwest 265 305 12,000  Level Cleveland Center
Thu 09:14:19 PM 41.7278 -77.2386 246° West 260 299 12,000  Level Cleveland Center
Thu 09:15:19 PM 41.6969 -77.3264 245° Southwest 260 299 12,000  Level Cleveland Center
Thu 09:16:19 PM 41.6619 -77.4144 242° Southwest 260 299 12,000  Level Cleveland Center
Thu 09:17:19 PM 41.6228 -77.5108 241° Southwest 268 308 12,000  Level Cleveland Center
Thu 09:18:19 PM 41.5919 -77.6011 245° Southwest 268 308 12,000  Level Cleveland Center
Thu 09:19:20 PM 41.5631 -77.6914 247° West 268 308 12,000  Level Cleveland Center
Thu 09:20:19 PM 41.5297 -77.7761 242° Southwest 263 303 12,000  Level Cleveland Center
Thu 09:21:19 PM 41.4961 -77.8633 243° Southwest 263 303 12,000  Level Cleveland Center
Thu 09:22:19 PM 41.4650 -77.9533 245° Southwest 263 303 12,000  Level Cleveland Center
Thu 09:23:19 PM 41.4336 -78.0433 245° Southwest 263 303 12,000  Level Cleveland Center
Thu 09:24:19 PM 41.4022 -78.1331 245° Southwest 263 303 12,000  Level Cleveland Center
Thu 09:25:19 PM 41.3708 -78.2203 244° Southwest 263 303 12,000  Level Cleveland Center
Thu 09:26:19 PM 41.3372 -78.3100 244° Southwest 263 303 12,000  Level Cleveland Center
Thu 09:27:19 PM 41.3033 -78.4022 244° Southwest 269 310 12,000  Level Cleveland Center
Thu 09:28:19 PM 41.2675 -78.4919 242° Southwest 269 310 12,000  Level Cleveland Center
Thu 09:29:19 PM 41.2336 -78.5814 243° Southwest 275 316 12,000  Level Cleveland Center
Thu 09:30:19 PM 41.2000 -78.6733 244° Southwest 280 322 12,000  Level Cleveland Center
Thu 09:31:19 PM 41.1661 -78.7683 245° Southwest 280 322 12,000  Level Cleveland Center
Thu 09:32:19 PM 41.1339 -78.8572 244° Southwest 280 322 12,000  Level Cleveland Center
Thu 09:33:19 PM 41.1000 -78.9464 243° Southwest 280 322 12,000  Level Cleveland Center
Thu 09:34:19 PM 41.0678 -79.0325 244° Southwest 274 315 12,000  Level Cleveland Center
Thu 09:35:19 PM 41.0333 -79.1214 243° Southwest 274 315 12,000  Level Cleveland Center
Thu 09:36:19 PM 41.0011 -79.2047 243° Southwest 263 303 12,000  Level Cleveland Center
Thu 09:37:19 PM 40.9689 -79.2906 244° Southwest 263 303 12,000 50 Level Cleveland Center
Thu 09:38:19 PM 40.9364 -79.3792 244° Southwest 263 303 12,100 50 Climbing Cleveland Center
Thu 09:39:19 PM 40.9061 -79.4678 246° West 263 303 12,100  Level Cleveland Center
Thu 09:40:19 PM 40.8714 -79.5533 242° Southwest 263 303 12,100  Level Cleveland Center
Thu 09:41:19 PM 40.8367 -79.6389 242° Southwest 263 303 12,100  Level Cleveland Center
Thu 09:42:19 PM 40.8039 -79.7272 244° Southwest 263 303 12,100  Level Cleveland Center
Thu 09:43:19 PM 40.7733 -79.8100 244° Southwest 263 303 12,100  Level Cleveland Center
Thu 09:44:19 PM 40.7425 -79.8981 245° Southwest 263 303 12,100  Level Cleveland Center
Thu 09:45:19 PM 40.7097 -79.9833 243° Southwest 263 303 12,100  Level Cleveland Center
Thu 09:46:19 PM 40.6789 -80.0683 244° Southwest 258 297 12,100  Level Cleveland Center
Thu 09:47:20 PM 40.6458 -80.1536 243° Southwest 263 303 12,100  Level Cleveland Center
Thu 09:48:19 PM 40.6044 -80.2386 237° Southwest 263 303 12,100  Level Cleveland Center
Thu 09:49:19 PM 40.5756 -80.3233 246° West 269 310 12,100  Level Cleveland Center
Thu 09:50:19 PM 40.5422 -80.4056 242° Southwest 269 310 12,100  Level Cleveland Center
Thu 09:51:19 PM 40.5092 -80.4903 243° Southwest 263 303 12,100  Level Cleveland Center
Thu 09:52:19 PM 40.4758 -80.5750 243° Southwest 263 303 12,100  Level Cleveland Center
Thu 09:53:19 PM 40.4422 -80.6622 243° Southwest 263 303 12,100  Level Cleveland Center
Thu 09:54:20 PM 40.4089 -80.7467 243° Southwest 263 303 12,100  Level Cleveland Center
Thu 09:55:19 PM 40.3733 -80.8339 242° Southwest 263 303 12,100  Level Cleveland Center
Thu 09:56:19 PM 40.3378 -80.9128 239° Southwest 268 308 12,100  Level Cleveland Center
Thu 09:57:19 PM 40.3042 -80.9969 242° Southwest 268 308 12,100  Level Cleveland Center
Thu 09:58:19 PM 40.2661 -81.0836 240° Southwest 268 308 12,100  Level Cleveland Center
Thu 09:59:19 PM 40.2344 -81.1678 244° Southwest 263 303 12,100  Level Cleveland Center
Thu 10:00:19 PM 40.2006 -81.2544 243° Southwest 263 303 12,100  Level Cleveland Center
Thu 10:01:29 PM 40.1606 -81.3600 244° Southwest 264 304 12,100  Level Indianapolis Center
Thu 10:02:30 PM 40.1264 -81.4489 243° Southwest 267 307 12,100 -49 Level Indianapolis Center
Thu 10:03:32 PM 40.0953 -81.5378 245° Southwest 267 307 12,000 -49 Descending Indianapolis Center
Thu 10:04:33 PM 40.0639 -81.6306 246° West 273 314 12,000  Level Indianapolis Center
Thu 10:05:35 PM 40.0361 -81.7181 248° West 266 306 12,000  Level Indianapolis Center
Thu 10:06:36 PM 40.0022 -81.8217 247° West 264 304 12,000  Level Indianapolis Center
Thu 10:07:37 PM 39.9758 -81.9089 248° West 259 298 12,000  Level Indianapolis Center
Thu 10:08:39 PM 39.9531 -81.9942 251° West 249 287 12,000  Level Indianapolis Center
Thu 10:09:40 PM 39.9300 -82.0797 251° West 249 287 12,000  Level Indianapolis Center
Thu 10:10:41 PM 39.9031 -82.1650 248° West 253 291 12,000  Level Indianapolis Center
Thu 10:11:43 PM 39.8739 -82.2486 246° West 252 290 12,000  Level Indianapolis Center
Thu 10:12:44 PM 39.8461 -82.3336 247° West 255 293 12,000  Level Indianapolis Center
Thu 10:13:45 PM 39.8172 -82.4175 246° West 253 291 12,000  Level Indianapolis Center
Thu 10:14:47 PM 39.7892 -82.5014 247° West 253 291 12,000  Level Indianapolis Center
Thu 10:15:48 PM 39.7594 -82.5869 246° West 256 295 12,000  Level Indianapolis Center
Thu 10:17:00 PM 39.7288 -82.6884 249° West  Level FlightAware Approximate
Thu 10:17:50 PM 39.6994 -82.7608 249° West 260 299 12,000  Level Indianapolis Center
Thu 10:18:52 PM 39.6722 -82.8481 248° West 259 298 12,000  Level Indianapolis Center
Thu 10:19:53 PM 39.6433 -82.9344 247° West 258 297 12,000  Level Indianapolis Center
Thu 10:20:54 PM 39.6153 -83.0203 247° West 257 296 12,000  Level Indianapolis Center
Thu 10:21:55 PM 39.5864 -83.1053 246° West 254 292 12,000  Level Indianapolis Center
Thu 10:22:57 PM 39.5572 -83.1917 246° West 257 296 12,000  Level Indianapolis Center
Thu 10:23:58 PM 39.5278 -83.2769 246° West 257 296 12,000  Level Indianapolis Center
Thu 10:24:59 PM 39.4978 -83.3767 249° West 252 290 12,000  Level Indianapolis Center
Thu 10:26:01 PM 39.4681 -83.4606 245° Southwest 252 290 12,000 -244 Level Indianapolis Center
Thu 10:27:02 PM 39.4375 -83.5461 245° Southwest 259 298 11,500 -443 Descending Indianapolis Center
Thu 10:28:03 PM 39.4072 -83.6342 246° West 264 304 11,100 -197 Descending Indianapolis Center
Thu 10:29:04 PM 39.3811 -83.7183 248° West 254 292 11,100  Level Indianapolis Center
Thu 10:30:06 PM 39.3528 -83.8019 246° West 252 290 11,100  Level Indianapolis Center
Thu 10:31:07 PM 39.3239 -83.8847 246° West 249 287 11,100 -197 Level Indianapolis Center
Thu 10:32:08 PM 39.2958 -83.9669 246° West 247 284 10,700 -689 Descending Indianapolis Center
Thu 10:33:09 PM 39.2517 -84.0414 233° Southwest 268 308 9,700 -1,073 Descending Indianapolis Center
Thu 10:34:11 PM 39.1933 -84.1006 218° Southwest 266 306 8,500 -1,317 Descending Indianapolis Center
Thu 10:35:12 PM 39.1386 -84.1625 221° Southwest 260 299 7,000 -1,475 Descending Indianapolis Center
Thu 10:36:13 PM 39.0856 -84.2222 221° Southwest 256 295 5,500 -1,131 Descending Indianapolis Center
Thu 10:37:14 PM 39.0508 -84.2911 237° Southwest 241 277 4,700 -585 Descending Indianapolis Center
Thu 10:38:16 PM 39.0458 -84.3722 265° West 232 267 4,300 -390 Descending Indianapolis Center
Thu 10:39:17 PM 39.0453 -84.4547 270° West 231 266 3,900 -804 Descending Indianapolis Center
Thu 10:41:30 PM 39.0500 -84.6000 272° West 136 157 1,700 -870 Descending Cincinnati TRACON
Thu 10:42:30 PM 39.0500 -84.6333 270° West 106 122 1,100 -600 Descending Cincinnati TRACON
Thu 10:44:00 PM 39.0333 -84.6667 267° West  Level FlightAware Approximate
Thu 10:51:00 PM 39.0488 -84.6678 267° West  Level Estimated

Login

Don't have an account? Register now (free) for customized features, flight alerts, and more!